createdAt,value
2022-07-29T00:00:58.264Z,1.58
2022-07-29T00:03:24.696Z,1.40
2022-07-29T00:05:52.978Z,1.30
2022-07-29T00:08:19.681Z,1.17
2022-07-29T00:10:46.035Z,1.38
2022-07-29T00:13:12.404Z,1.05
2022-07-29T00:15:38.708Z,1.50
2022-07-29T00:18:05.141Z,1.02
2022-07-29T00:20:31.415Z,1.30
2022-07-29T00:22:57.816Z,1.35
2022-07-29T00:25:24.085Z,1.20
2022-07-29T00:27:50.388Z,1.45
2022-07-29T00:30:17.312Z,1.40
2022-07-29T00:32:43.642Z,1.27
2022-07-29T00:35:28.799Z,1.50
2022-07-29T00:37:55.031Z,1.00
2022-07-29T00:40:23.568Z,1.15
2022-07-29T00:42:50.832Z,1.27
2022-07-29T00:45:17.433Z,1.10
2022-07-29T00:47:43.864Z,1.30
2022-07-29T00:50:11.318Z,1.10
2022-07-29T00:52:38.452Z,1.33
2022-07-29T00:55:08.636Z,1.30
2022-07-29T00:57:35.995Z,1.50
2022-07-29T01:00:04.016Z,1.40
2022-07-29T01:02:30.323Z,1.33
2022-07-29T01:04:57.993Z,1.13
2022-07-29T01:07:25.520Z,1.33
2022-07-29T01:09:51.896Z,1.20
2022-07-29T01:12:22.411Z,1.58
2022-07-29T01:14:49.863Z,1.48
2022-07-29T01:17:18.884Z,1.30
2022-07-29T01:19:45.124Z,1.30
2022-07-29T01:22:31.640Z,1.50
2022-07-29T01:25:13.186Z,1.33
2022-07-29T01:27:45.709Z,1.50
2022-07-29T01:30:13.827Z,1.30
2022-07-29T01:32:43.708Z,1.10
2022-07-29T01:35:13.835Z,1.20
2022-07-29T01:37:49.606Z,1.00
2022-07-29T01:40:25.066Z,0.95
2022-07-29T01:42:53.179Z,1.40
2022-07-29T01:45:19.418Z,1.10
2022-07-29T01:47:47.919Z,1.27
2022-07-29T01:50:17.024Z,1.45
2022-07-29T01:52:55.244Z,1.40
2022-07-29T01:55:23.048Z,1.33
2022-07-29T01:57:50.022Z,1.30
2022-07-29T02:00:16.917Z,1.17
2022-07-29T02:02:44.644Z,1.27
2022-07-29T02:05:13.259Z,1.20
2022-07-29T02:07:41.069Z,1.85
2022-07-29T02:10:07.894Z,1.30
2022-07-29T02:12:34.683Z,0.90
2022-07-29T02:15:02.057Z,1.30
2022-07-29T02:17:30.067Z,1.10
2022-07-29T02:19:58.099Z,1.27
2022-07-29T02:22:25.174Z,1.38
2022-07-29T02:24:52.312Z,1.10
2022-07-29T02:27:19.779Z,1.30
2022-07-29T02:29:47.558Z,1.20
2022-07-29T02:32:15.366Z,1.00
2022-07-29T02:34:42.309Z,1.35
2022-07-29T02:37:10.288Z,1.10
2022-07-29T02:39:37.305Z,1.35
2022-07-29T02:42:05.011Z,1.40
2022-07-29T02:44:34.858Z,1.20
2022-07-29T02:47:10.176Z,1.58
2022-07-29T02:49:38.464Z,1.08
2022-07-29T02:52:07.644Z,0.98
2022-07-29T02:54:33.926Z,1.13
2022-07-29T02:57:02.972Z,1.23
2022-07-29T02:59:30.603Z,1.17
2022-07-29T03:01:58.760Z,1.10
2022-07-29T03:04:26.640Z,1.70
2022-07-29T03:06:53.719Z,1.40
2022-07-29T03:09:20.702Z,1.40
2022-07-29T03:11:50.541Z,1.23
2022-07-29T03:14:18.246Z,1.30
2022-07-29T03:16:44.865Z,1.83
2022-07-29T03:19:11.392Z,1.65
2022-07-29T03:21:37.679Z,1.30
2022-07-29T03:24:09.813Z,1.55
2022-07-29T03:26:36.848Z,1.23
2022-07-29T03:29:03.118Z,1.80
2022-07-29T03:31:29.476Z,1.30
2022-07-29T03:33:55.836Z,1.58
2022-07-29T03:36:22.132Z,1.20
2022-07-29T03:38:49.019Z,1.10
2022-07-29T03:41:15.486Z,1.20
2022-07-29T03:43:49.074Z,1.20
2022-07-29T03:46:17.450Z,1.50
2022-07-29T03:48:47.432Z,1.05
2022-07-29T03:51:13.936Z,1.38
2022-07-29T03:53:40.317Z,1.05
2022-07-29T03:56:07.667Z,1.67
2022-07-29T03:58:34.188Z,1.40
2022-07-29T04:01:00.588Z,1.10
2022-07-29T04:03:26.954Z,1.10
2022-07-29T04:06:03.686Z,1.27
2022-07-29T04:08:29.982Z,1.40
2022-07-29T04:10:56.334Z,1.58
2022-07-29T04:13:22.719Z,1.15
2022-07-29T04:15:49.070Z,1.20
2022-07-29T04:18:15.343Z,1.17
2022-07-29T04:20:41.628Z,1.20
2022-07-29T04:23:07.909Z,1.27
2022-07-29T04:25:34.207Z,1.38
2022-07-29T04:28:03.959Z,1.58
2022-07-29T04:30:31.280Z,1.50
2022-07-29T04:32:57.601Z,1.25
2022-07-29T04:35:23.903Z,1.30
2022-07-29T04:37:50.141Z,1.08
2022-07-29T04:40:16.471Z,1.10
2022-07-29T04:42:46.772Z,1.38
2022-07-29T04:45:14.203Z,1.45
2022-07-29T04:47:40.777Z,1.40
2022-07-29T04:50:08.063Z,1.20
2022-07-29T04:52:35.633Z,1.27
2022-07-29T04:55:02.240Z,1.30
2022-07-29T04:57:28.491Z,1.40
2022-07-29T04:59:54.730Z,1.15
2022-07-29T05:02:21.082Z,1.65
2022-07-29T05:04:47.342Z,1.20
2022-07-29T05:07:13.630Z,1.65
2022-07-29T05:09:39.919Z,1.23
2022-07-29T05:12:06.487Z,1.50
2022-07-29T05:14:32.775Z,1.58
2022-07-29T05:16:59.186Z,1.10
2022-07-29T05:19:25.434Z,1.30
2022-07-29T05:21:51.667Z,1.20
2022-07-29T05:24:18.249Z,1.52
2022-07-29T05:26:44.924Z,1.20
2022-07-29T05:29:42.703Z,1.30
2022-07-29T05:31:58.336Z,1.10
2022-07-29T05:34:25.922Z,1.27
2022-07-29T05:36:52.204Z,1.33
2022-07-29T05:39:18.485Z,1.20
2022-07-29T05:41:50.058Z,1.20
2022-07-29T05:44:18.479Z,1.40
2022-07-29T05:46:44.951Z,1.38
2022-07-29T05:49:11.339Z,1.40
2022-07-29T05:51:53.343Z,1.30
2022-07-29T05:54:19.597Z,1.33
2022-07-29T05:56:45.827Z,1.30
2022-07-29T05:59:17.896Z,1.17
2022-07-29T06:01:44.645Z,1.45
2022-07-29T06:04:11.008Z,1.30
2022-07-29T06:06:37.319Z,1.20
2022-07-29T06:09:12.575Z,1.17
2022-07-29T06:11:39.572Z,1.25
2022-07-29T06:14:05.907Z,1.50
2022-07-29T06:16:32.265Z,1.17
2022-07-29T06:18:58.629Z,1.20
2022-07-29T06:21:24.898Z,1.13
2022-07-29T06:23:51.187Z,1.20
2022-07-29T06:26:17.451Z,1.42
2022-07-29T06:28:43.694Z,1.77
2022-07-29T06:31:10.384Z,1.15
2022-07-29T06:33:36.905Z,1.50
2022-07-29T06:36:04.830Z,1.35
2022-07-29T06:38:34.257Z,1.10
2022-07-29T06:41:03.568Z,1.23
2022-07-29T06:43:51.809Z,1.67
2022-07-29T06:46:21.118Z,1.20
2022-07-29T06:48:48.599Z,1.40
2022-07-29T06:51:15.032Z,1.45
2022-07-29T06:53:59.344Z,2.08
2022-07-29T06:56:29.038Z,1.58
2022-07-29T06:58:55.292Z,1.30
2022-07-29T07:01:21.590Z,1.90
2022-07-29T07:03:48.401Z,1.52
2022-07-29T07:06:15.185Z,1.52
2022-07-29T07:08:41.600Z,2.03
2022-07-29T07:11:08.148Z,2.00
2022-07-29T07:13:35.386Z,1.92
2022-07-29T07:16:03.624Z,2.30
2022-07-29T07:18:29.918Z,1.80
2022-07-29T07:20:56.793Z,1.88
2022-07-29T07:23:23.167Z,1.70
2022-07-29T07:25:49.427Z,2.05
2022-07-29T07:28:15.659Z,1.65
2022-07-29T07:30:41.904Z,1.70
2022-07-29T07:33:08.148Z,1.90
2022-07-29T07:35:35.052Z,1.73
2022-07-29T07:38:01.360Z,1.50
2022-07-29T07:40:27.751Z,2.00
2022-07-29T07:42:54.062Z,1.88
2022-07-29T07:45:20.334Z,1.83
2022-07-29T07:47:46.601Z,2.00
2022-07-29T07:50:18.201Z,2.00
2022-07-29T07:52:48.920Z,2.20
2022-07-29T07:55:15.272Z,2.38
2022-07-29T07:57:41.719Z,2.03
2022-07-29T08:00:08.236Z,2.20
2022-07-29T08:02:34.529Z,2.22
2022-07-29T08:05:00.891Z,2.25
2022-07-29T08:07:27.139Z,1.70
2022-07-29T08:09:53.367Z,2.20
2022-07-29T08:12:19.606Z,2.50
2022-07-29T08:14:45.885Z,1.90
2022-07-29T08:17:12.154Z,2.28
2022-07-29T08:19:38.501Z,2.33
2022-07-29T08:22:04.835Z,2.33
2022-07-29T08:24:49.915Z,2.97
2022-07-29T08:27:41.928Z,2.95
2022-07-29T08:30:02.485Z,2.05
2022-07-29T08:32:51.888Z,2.55
2022-07-29T08:35:15.604Z,2.75
2022-07-29T08:37:42.802Z,1.95
2022-07-29T08:40:12.382Z,2.10
2022-07-29T08:42:38.721Z,2.40
2022-07-29T08:45:05.519Z,2.40
2022-07-29T08:47:31.879Z,2.38
2022-07-29T08:49:58.324Z,2.40
2022-07-29T08:52:26.450Z,2.33
2022-07-29T08:54:53.647Z,2.28
2022-07-29T08:57:20.658Z,2.15
2022-07-29T08:59:50.471Z,2.22
2022-07-29T09:02:20.666Z,2.25
2022-07-29T09:04:47.174Z,2.28
2022-07-29T09:07:16.976Z,2.63
2022-07-29T09:09:43.895Z,2.70
2022-07-29T09:12:12.356Z,2.20
2022-07-29T09:14:42.003Z,2.22
2022-07-29T09:17:08.788Z,2.42
2022-07-29T09:19:35.964Z,2.80
2022-07-29T09:22:04.710Z,2.90
2022-07-29T09:24:48.281Z,2.63
2022-07-29T09:27:21.716Z,2.70
2022-07-29T09:29:48.330Z,2.83
2022-07-29T09:32:14.648Z,3.58
2022-07-29T09:34:40.919Z,3.22
2022-07-29T09:37:07.301Z,3.60
2022-07-29T09:39:35.027Z,2.78
2022-07-29T09:42:02.621Z,3.33
2022-07-29T09:44:41.726Z,4.65
2022-07-29T09:47:08.066Z,3.05
2022-07-29T09:49:34.998Z,2.70
2022-07-29T09:52:05.503Z,2.60
2022-07-29T09:54:37.560Z,2.92
2022-07-29T09:57:05.295Z,2.70
2022-07-29T09:59:31.591Z,3.15
2022-07-29T10:01:58.395Z,2.42
2022-07-29T10:04:24.893Z,2.70
2022-07-29T10:07:03.893Z,3.33
2022-07-29T10:09:30.974Z,3.42
2022-07-29T10:12:11.773Z,3.47
2022-07-29T10:14:38.521Z,3.42
2022-07-29T10:17:05.368Z,2.40
2022-07-29T10:19:32.445Z,3.00
2022-07-29T10:21:59.590Z,3.05
2022-07-29T10:24:30.136Z,2.72
2022-07-29T10:26:56.926Z,3.20
2022-07-29T10:29:23.650Z,2.97
2022-07-29T10:31:53.626Z,3.10
2022-07-29T10:34:24.545Z,2.90
2022-07-29T10:37:09.895Z,3.63
2022-07-29T10:40:01.201Z,4.05
2022-07-29T10:42:34.326Z,3.45
2022-07-29T10:45:01.589Z,3.67
2022-07-29T10:47:28.289Z,3.42
2022-07-29T10:49:58.052Z,3.63
2022-07-29T10:52:30.256Z,3.38
2022-07-29T10:54:59.448Z,2.92
2022-07-29T10:57:57.728Z,3.20
2022-07-29T11:00:16.966Z,2.67
2022-07-29T11:02:44.837Z,2.58
2022-07-29T11:05:11.515Z,2.28
2022-07-29T11:07:46.012Z,2.78
2022-07-29T11:10:12.832Z,2.70
2022-07-29T11:12:40.419Z,2.35
2022-07-29T11:15:09.003Z,3.03
2022-07-29T11:17:54.275Z,2.40
2022-07-29T11:20:39.936Z,2.90
2022-07-29T11:23:25.714Z,2.40
2022-07-29T11:26:10.405Z,2.92
2022-07-29T11:28:43.398Z,3.58
2022-07-29T11:31:10.955Z,3.10
2022-07-29T11:33:56.439Z,3.38
2022-07-29T11:39:36.257Z,3.25
2022-07-29T11:42:30.483Z,4.10
2022-07-29T11:44:59.015Z,3.67
2022-07-29T11:47:41.085Z,3.53
2022-07-29T11:50:13.881Z,4.15
2022-07-29T13:32:09.458Z,8.10
2022-07-29T13:34:36.827Z,9.98
2022-07-29T13:37:03.311Z,9.45
2022-07-29T13:39:29.661Z,9.60
2022-07-29T13:41:56.489Z,16.55
2022-07-29T13:44:24.024Z,16.17
2022-07-29T13:46:50.987Z,13.55
2022-07-29T13:49:17.338Z,11.07
2022-07-29T13:51:43.879Z,9.60
2022-07-29T13:54:10.259Z,9.05
2022-07-29T13:56:36.593Z,10.77
2022-07-29T13:59:03.064Z,9.00
2022-07-29T14:01:31.297Z,6.93
2022-07-29T14:03:57.905Z,7.15
2022-07-29T14:06:24.463Z,6.63
2022-07-29T14:08:51.806Z,6.20
2022-07-29T14:11:18.121Z,7.63
2022-07-29T14:13:47.696Z,6.65
2022-07-29T14:16:15.259Z,6.68
2022-07-29T14:18:41.618Z,7.05
2022-07-29T14:21:07.968Z,8.13
2022-07-29T14:23:34.505Z,8.55
2022-07-29T14:26:01.200Z,9.63
2022-07-29T14:28:28.943Z,10.85
2022-07-29T14:30:55.293Z,9.95
2022-07-29T14:33:21.608Z,10.23
2022-07-29T14:35:48.091Z,8.73
2022-07-29T14:38:14.386Z,13.68
2022-07-29T14:40:40.692Z,16.30
2022-07-29T14:43:07.012Z,11.15
2022-07-29T14:45:33.471Z,10.50
2022-07-29T14:48:00.843Z,10.07
2022-07-29T14:50:31.565Z,10.18
2022-07-29T14:52:58.620Z,8.32
2022-07-29T14:55:24.959Z,8.40
2022-07-29T14:57:51.262Z,8.40
2022-07-29T15:00:18.300Z,7.97
2022-07-29T15:03:00.949Z,6.80
2022-07-29T15:05:28.101Z,6.10
2022-07-29T15:07:54.645Z,6.22
2022-07-29T15:10:20.980Z,6.85
2022-07-29T15:12:47.267Z,11.02
2022-07-29T15:15:13.705Z,15.45
2022-07-29T15:17:40.053Z,11.70
2022-07-29T15:20:06.656Z,15.65
2022-07-29T15:22:32.978Z,12.80
2022-07-29T15:24:59.323Z,11.75
2022-07-29T15:27:26.281Z,11.43
2022-07-29T15:29:52.599Z,8.55
2022-07-29T15:32:18.988Z,11.43
2022-07-29T15:34:45.402Z,12.20
2022-07-29T15:37:12.429Z,10.63
2022-07-29T15:39:38.772Z,9.80
2022-07-29T15:42:05.439Z,8.40
2022-07-29T15:44:31.810Z,9.15
2022-07-29T15:47:03.861Z,8.15
2022-07-29T15:49:47.643Z,8.13
2022-07-29T15:52:15.933Z,7.60
2022-07-29T15:54:42.391Z,12.48
2022-07-29T15:57:10.089Z,9.65
2022-07-29T15:59:36.464Z,11.30
2022-07-29T16:02:02.906Z,10.27
2022-07-29T16:04:29.295Z,7.80
2022-07-29T16:06:56.023Z,8.50
2022-07-29T16:09:23.137Z,8.23
2022-07-29T16:11:50.957Z,8.63
2022-07-29T16:14:18.026Z,10.52
2022-07-29T16:16:44.611Z,13.00
2022-07-29T16:19:11.576Z,16.33
2022-07-29T16:21:38.316Z,12.73
2022-07-29T16:24:05.668Z,11.35
2022-07-29T16:26:32.463Z,10.88
2022-07-29T16:28:59.632Z,10.77
2022-07-29T16:31:26.280Z,10.15
2022-07-29T16:33:54.851Z,15.40
2022-07-29T16:36:21.864Z,14.52
2022-07-29T16:38:51.162Z,15.98
2022-07-29T16:41:17.480Z,14.75
2022-07-29T16:43:43.825Z,14.48
2022-07-29T16:46:14.002Z,10.90
2022-07-29T16:48:45.601Z,8.63
2022-07-29T16:51:12.119Z,8.63
2022-07-29T16:53:40.983Z,6.35
2022-07-29T16:56:07.333Z,7.03
2022-07-29T16:58:40.508Z,6.47
2022-07-29T17:01:09.813Z,5.53
2022-07-29T17:03:36.343Z,7.07
2022-07-29T17:06:02.705Z,8.40
2022-07-29T17:08:29.063Z,10.10
2022-07-29T17:10:55.354Z,9.95
2022-07-29T17:13:21.740Z,9.10
2022-07-29T17:15:50.556Z,10.40
2022-07-29T17:18:17.029Z,10.50
2022-07-29T17:20:43.349Z,10.27
2022-07-29T17:23:09.721Z,8.88
2022-07-29T17:25:36.308Z,10.55
2022-07-29T17:28:02.612Z,8.73
2022-07-29T17:30:29.626Z,7.93
2022-07-29T17:32:56.070Z,7.97
2022-07-29T17:35:40.788Z,5.20
2022-07-29T17:38:07.076Z,5.32
2022-07-29T17:40:33.392Z,5.18
2022-07-29T17:42:59.753Z,5.20
2022-07-29T17:45:26.228Z,4.18
2022-07-29T17:48:12.565Z,4.53
2022-07-29T17:50:38.869Z,4.40
2022-07-29T17:53:05.327Z,3.80
2022-07-29T17:55:44.344Z,3.40
2022-07-29T17:58:10.732Z,4.38
2022-07-29T18:00:37.142Z,2.92
2022-07-29T18:03:03.631Z,4.97
2022-07-29T18:05:30.005Z,3.63
2022-07-29T18:07:56.349Z,3.13
2022-07-29T18:10:22.924Z,3.17
2022-07-29T18:12:49.212Z,3.17
2022-07-29T18:15:15.642Z,2.67
2022-07-29T18:17:52.698Z,2.92
2022-07-29T18:20:23.888Z,2.88
2022-07-29T18:22:51.072Z,3.30
2022-07-29T18:25:17.412Z,2.50
2022-07-29T18:27:43.726Z,2.47
2022-07-29T18:30:10.173Z,2.78
2022-07-29T18:32:36.601Z,2.50
2022-07-29T18:35:05.072Z,2.88
2022-07-29T18:38:00.815Z,4.22
2022-07-29T18:40:23.618Z,8.18
2022-07-29T18:42:49.926Z,8.70
2022-07-29T18:45:19.369Z,6.72
2022-07-29T18:47:47.451Z,8.63
2022-07-29T18:50:14.618Z,40.95
2022-07-29T18:52:41.005Z,36.53
2022-07-29T18:55:07.696Z,24.10
2022-07-29T18:57:54.117Z,29.70
2022-07-29T19:02:46.708Z,25.95
2022-07-29T19:05:13.076Z,24.05
2022-07-29T19:07:39.464Z,26.63
2022-07-29T19:10:06.096Z,26.38
2022-07-29T19:12:35.066Z,17.67
2022-07-29T19:15:01.469Z,17.15
2022-07-29T19:17:27.763Z,15.52
2022-07-29T19:19:54.047Z,14.98
2022-07-29T19:22:21.833Z,15.88
2022-07-29T19:24:51.300Z,15.90
2022-07-29T19:27:17.636Z,12.32
2022-07-29T19:29:44.024Z,11.88
2022-07-29T19:32:10.351Z,11.13
2022-07-29T19:34:37.374Z,9.07
2022-07-29T19:37:03.777Z,8.13
2022-07-29T19:39:34.933Z,7.10
2022-07-29T19:42:03.422Z,5.40
2022-07-29T19:44:29.945Z,6.22
2022-07-29T19:46:56.522Z,5.47
2022-07-29T19:49:26.301Z,5.18
2022-07-29T19:51:53.417Z,5.78
2022-07-29T19:54:20.703Z,5.10
2022-07-29T19:56:47.095Z,4.75
2022-07-29T19:59:13.373Z,4.35
2022-07-29T20:01:39.739Z,4.70
2022-07-29T20:04:06.142Z,4.40
2022-07-29T20:06:32.566Z,3.85
2022-07-29T20:08:59.176Z,3.97
2022-07-29T20:11:26.424Z,3.35
2022-07-29T20:13:52.756Z,3.60
2022-07-29T20:16:19.115Z,3.00
2022-07-29T20:18:45.533Z,2.75
2022-07-29T20:21:11.974Z,3.53
2022-07-29T20:23:38.425Z,2.45
2022-07-29T20:26:09.239Z,2.92
2022-07-29T20:28:35.966Z,3.80
2022-07-29T20:31:02.347Z,3.13
2022-07-29T20:33:28.723Z,3.20
2022-07-29T20:35:55.051Z,3.13
2022-07-29T20:38:21.373Z,2.92
2022-07-29T20:40:47.702Z,2.78
2022-07-29T20:43:14.026Z,2.65
2022-07-29T20:45:40.427Z,2.75
2022-07-29T20:48:07.039Z,3.10
2022-07-29T20:50:34.713Z,2.78
2022-07-29T20:53:01.177Z,2.63
2022-07-29T20:55:27.762Z,2.97
2022-07-29T20:57:54.034Z,3.20
2022-07-29T21:00:20.454Z,2.95
2022-07-29T21:02:47.236Z,2.83
2022-07-29T21:05:13.773Z,3.03
2022-07-29T21:07:40.192Z,3.20
2022-07-29T21:10:06.648Z,3.35
2022-07-29T21:12:33.785Z,4.22
2022-07-29T21:15:00.210Z,4.00
2022-07-29T21:17:26.626Z,4.55
2022-07-29T21:19:53.532Z,5.05
2022-07-29T21:22:21.707Z,5.30
2022-07-29T21:24:48.505Z,4.70
2022-07-29T21:27:33.577Z,4.65
2022-07-29T21:29:59.903Z,5.00
2022-07-29T21:32:30.149Z,4.85
2022-07-29T21:34:57.059Z,5.95
2022-07-29T21:37:23.382Z,5.50
2022-07-29T21:39:49.833Z,5.13
2022-07-29T21:42:16.146Z,4.65
2022-07-29T21:44:42.642Z,3.97
2022-07-29T21:47:09.549Z,4.50
2022-07-29T21:49:35.964Z,4.03
2022-07-29T21:52:04.183Z,5.50
2022-07-29T21:54:31.232Z,6.20
2022-07-29T21:56:57.614Z,5.20
2022-07-29T21:59:24.347Z,5.22
2022-07-29T22:01:50.759Z,4.70
2022-07-29T22:04:17.261Z,4.85
2022-07-29T22:06:43.609Z,4.88
2022-07-29T22:09:10.117Z,5.07
2022-07-29T22:11:36.733Z,4.15
2022-07-29T22:14:03.838Z,4.63
2022-07-29T22:16:30.296Z,5.18
2022-07-29T22:18:56.664Z,4.38
2022-07-29T22:21:22.920Z,5.35
2022-07-29T22:23:49.260Z,4.20
2022-07-29T22:26:15.582Z,3.90
2022-07-29T22:28:41.907Z,4.13
2022-07-29T22:31:08.382Z,4.05
2022-07-29T22:33:34.747Z,4.65
2022-07-29T22:36:01.088Z,4.57
2022-07-29T22:38:27.384Z,4.03
2022-07-29T22:40:53.732Z,3.30
2022-07-29T22:43:27.042Z,3.90
2022-07-29T22:45:53.442Z,3.60
2022-07-29T22:48:19.775Z,3.42
2022-07-29T22:50:46.241Z,3.40
2022-07-29T22:53:12.532Z,3.05
2022-07-29T22:55:39.024Z,3.70
2022-07-29T22:58:10.608Z,4.50
2022-07-29T23:00:37.025Z,3.53
2022-07-29T23:03:03.399Z,3.25
2022-07-29T23:05:29.698Z,3.05
2022-07-29T23:07:56.064Z,3.53
2022-07-29T23:10:22.755Z,3.30
2022-07-29T23:12:49.211Z,3.10
2022-07-29T23:15:15.494Z,3.15
2022-07-29T23:17:41.847Z,3.17
2022-07-29T23:20:09.777Z,3.75
2022-07-29T23:22:36.329Z,2.70
2022-07-29T23:25:03.138Z,3.15
2022-07-29T23:27:29.432Z,2.55
2022-07-29T23:29:55.734Z,2.40
2022-07-29T23:32:22.059Z,3.17
2022-07-29T23:34:48.339Z,3.47
2022-07-29T23:37:14.647Z,2.83
2022-07-29T23:39:40.968Z,2.72
2022-07-29T23:42:07.293Z,2.80
2022-07-29T23:44:33.701Z,3.05
2022-07-29T23:47:00.283Z,3.20
2022-07-29T23:49:26.834Z,2.83
2022-07-29T23:51:53.127Z,2.88
2022-07-29T23:54:19.456Z,2.50
2022-07-29T23:56:46.481Z,2.83
2022-07-29T23:59:12.928Z,2.70
